Time;durP1;ratioP1;P1;durP2;ratioP2;P2;SDS_P1;SDS_P2;PMS_P1;PMS_P2;Temp;Humidity;BMP_temperature;BMP_pressure;BME280_temperature;BME280_humidity;BME280_pressure;Samples;Min_cycle;Max_cycle;Signal;HPM_P1;HPM_P2
2022/10/12 00:01:09;;;;;;;;;;;;;;;20.62;48.89;95727.56;6121289;19;1524;-88
2022/10/12 00:03:12;;;;;;;;;;;;;;;20.63;48.76;95729.22;6125727;19;1487;-87
2022/10/12 00:05:15;;;;;;;;;;;;;;;20.64;49.08;95727.38;6126542;19;1566;-87
2022/10/12 00:07:19;;;;;;;;;;;;;;;20.62;49.27;95727.56;6127006;19;1507;-89
2022/10/12 00:09:22;;;;;;;;;;;;;;;20.62;48.83;95722.22;6104549;19;1535;-88
2022/10/12 00:11:29;;;;;;;;;;;;;;;20.63;49.13;95723.03;6124295;19;1474;-88
2022/10/12 00:13:33;;;;;;;;;;;;;;;20.64;48.96;95719.38;6126207;19;1449;-89
2022/10/12 00:15:38;;;;;;;;;;;;;;;20.62;49.28;95718.72;6125730;19;1006;-88
2022/10/12 00:17:41;;;;;;;;;;;;;;;20.63;49.20;95718.53;6123534;19;1877;-89
2022/10/12 00:19:45;;;;;;;;;;;;;;;20.61;49.02;95709.88;6115354;19;1521;-87
2022/10/12 00:21:48;;;;;;;;;;;;;;;20.62;49.29;95716.88;6113601;19;1372;-89
2022/10/12 00:23:51;;;;;;;;;;;;;;;20.61;49.35;95711.75;6125745;19;1457;-87
2022/10/12 00:25:55;;;;;;;;;;;;;;;20.62;49.32;95711.53;6126615;19;1507;-87
2022/10/12 00:28:01;;;;;;;;;;;;;;;20.60;49.07;95705.59;6125825;19;1517;-88
2022/10/12 00:30:05;;;;;;;;;;;;;;;20.61;49.00;95703.72;6126663;19;1516;-86
2022/10/12 00:32:09;;;;;;;;;;;;;;;20.61;49.12;95712.56;6104226;19;1441;-86
2022/10/12 00:34:12;;;;;;;;;;;;;;;20.61;49.05;95717.91;6126228;19;1091;-85
2022/10/12 00:36:16;;;;;;;;;;;;;;;20.60;49.27;95713.59;6126704;19;1422;-86
2022/10/12 00:38:20;;;;;;;;;;;;;;;20.60;49.04;95713.59;6124295;19;1849;-86
2022/10/12 00:40:23;;;;;;;;;;;;;;;20.59;49.26;95705.75;6123415;19;1430;-85
2022/10/12 00:42:27;;;;;;;;;;;;;;;20.60;49.01;95702.06;6122684;19;1401;-87
2022/10/12 00:44:44;;;;;;;;;;;;;;;20.60;49.03;95708.25;6106288;19;1550;-86
2022/10/12 00:46:47;;;;;;;;;;;;;;;20.58;49.29;95704.94;6123419;19;1069;-86
2022/10/12 00:48:53;;;;;;;;;;;;;;;20.60;49.22;95702.91;6127860;19;1386;-88
2022/10/12 00:50:57;;;;;;;;;;;;;;;20.63;48.91;95705.19;6123171;19;1493;-87
2022/10/12 00:53:04;;;;;;;;;;;;;;;20.63;49.07;95702.53;6121838;19;1508;-87
2022/10/12 00:55:09;;;;;;;;;;;;;;;20.62;48.88;95706.19;6106372;19;1422;-87
2022/10/12 00:57:14;;;;;;;;;;;;;;;20.61;49.24;95699.22;6123464;19;1466;-87
2022/10/12 00:59:21;;;;;;;;;;;;;;;20.61;49.36;95701.88;6124064;19;1854;-88
2022/10/12 01:01:27;;;;;;;;;;;;;;;20.60;49.06;95699.38;6127162;19;1442;-88
2022/10/12 01:03:31;;;;;;;;;;;;;;;20.57;48.95;95697.94;6124887;19;1473;-87
2022/10/12 01:05:35;;;;;;;;;;;;;;;20.60;48.98;95696.72;6125159;19;1493;-87
2022/10/12 01:07:38;;;;;;;;;;;;;;;20.59;48.87;95700.41;6107119;19;1536;-88
2022/10/12 01:09:42;;;;;;;;;;;;;;;20.60;49.01;95691.38;6126249;19;1407;-89
2022/10/12 01:11:45;;;;;;;;;;;;;;;20.62;48.93;95694.69;6123329;19;1449;-90
2022/10/12 01:13:48;;;;;;;;;;;;;;;20.61;49.28;95696.53;6122194;19;1516;-88
2022/10/12 01:15:57;;;;;;;;;;;;;;;20.61;48.95;95693.06;6124212;19;1441;-87
2022/10/12 01:18:08;;;;;;;;;;;;;;;20.57;49.17;95697.94;6106818;19;1856;-87
2022/10/12 01:20:32;;;;;;;;;;;;;;;20.58;49.30;95698.78;6123199;19;1515;-86
2022/10/12 01:22:39;;;;;;;;;;;;;;;20.59;49.53;95701.25;6122454;19;1529;-86
2022/10/12 01:24:46;;;;;;;;;;;;;;;20.57;49.56;95703.28;6121409;19;1497;-86
2022/10/12 01:27:04;;;;;;;;;;;;;;;20.58;49.63;95698.78;6122196;19;1504;-84
2022/10/12 01:29:14;;;;;;;;;;;;;;;20.57;49.64;95703.28;6114364;19;1448;-85
2022/10/12 01:31:26;;;;;;;;;;;;;;;20.56;49.69;95702.44;6114494;19;1537;-84
2022/10/12 01:33:36;;;;;;;;;;;;;;;20.57;49.67;95703.28;6123659;19;1436;-86
2022/10/12 01:35:45;;;;;;;;;;;;;;;20.57;49.86;95703.28;6123426;19;1517;-86
2022/10/12 01:37:52;;;;;;;;;;;;;;;20.60;49.69;95702.91;6123284;19;1850;-88
2022/10/12 01:39:57;;;;;;;;;;;;;;;20.61;49.86;95709.06;6123669;19;1418;-87
2022/10/12 01:42:04;;;;;;;;;;;;;;;20.61;50.21;95701.06;6103493;19;1448;-87
2022/10/12 01:44:08;;;;;;;;;;;;;;;20.62;50.13;95700.84;6122513;19;1480;-86
2022/10/12 01:46:26;;;;;;;;;;;;;;;20.61;49.96;95701.88;6121470;19;1433;-87
2022/10/12 01:48:32;;;;;;;;;;;;;;;20.62;50.14;95700.84;6124258;19;1544;-86
2022/10/12 01:50:41;;;;;;;;;;;;;;;20.61;50.50;95698.38;6123365;19;1530;-87
2022/10/12 01:52:49;;;;;;;;;;;;;;;20.61;50.41;95704.56;6102155;19;1512;-87
2022/10/12 01:55:08;;;;;;;;;;;;;;;20.61;50.56;95707.22;6123633;19;1382;-87
2022/10/12 01:57:17;;;;;;;;;;;;;;;20.62;50.44;95703.53;6121860;19;1529;-86
2022/10/12 01:59:22;;;;;;;;;;;;;;;20.63;50.35;95707.84;6122121;19;1834;-86
2022/10/12 02:01:32;;;;;;;;;;;;;;;20.61;50.54;95707.22;6123163;19;1466;-87
2022/10/12 02:03:43;;;;;;;;;;;;;;;20.60;50.47;95697.56;6103054;19;1493;-87
2022/10/12 02:05:50;;;;;;;;;;;;;;;20.61;50.32;95709.88;6120272;19;1412;-86
2022/10/12 02:07:55;;;;;;;;;;;;;;;20.62;50.35;95708.84;6122171;19;1401;-86
2022/10/12 02:10:00;;;;;;;;;;;;;;;20.62;50.50;95711.53;6122228;19;1442;-84
2022/10/12 02:12:06;;;;;;;;;;;;;;;20.64;50.93;95706.81;6122481;19;1576;-87
2022/10/12 02:14:12;;;;;;;;;;;;;;;20.70;50.32;95711.38;6113639;19;1483;-83
2022/10/12 02:16:17;;;;;;;;;;;;;;;20.72;50.71;95703.19;6111198;19;1433;-89
2022/10/12 02:18:23;;;;;;;;;;;;;;;20.73;49.93;95712.84;6121575;19;1856;-89
2022/10/12 02:20:29;;;;;;;;;;;;;;;20.79;49.72;95707.53;6122291;19;1483;-85
2022/10/12 02:22:34;;;;;;;;;;;;;;;20.79;49.75;95720.06;6120149;19;1456;-88
2022/10/12 02:24:40;;;;;;;;;;;;;;;20.82;49.88;95711.66;6117678;19;1534;-86
2022/10/12 02:26:46;;;;;;;;;;;;;;;20.78;50.41;95713.91;6103785;19;1517;-87
2022/10/12 02:28:51;;;;;;;;;;;;;;;20.74;50.32;95723.34;6119437;19;1513;-88
2022/10/12 02:30:59;;;;;;;;;;;;;;;20.70;50.80;95724.72;6120224;19;1529;-86
2022/10/12 02:33:08;;;;;;;;;;;;;;;20.70;50.88;95726.59;6122134;19;1222;-87
2022/10/12 02:35:15;;;;;;;;;;;;;;;20.68;50.76;95732.09;6119834;19;1532;-85
2022/10/12 02:37:28;;;;;;;;;;;;;;;20.70;50.61;95729.25;6111036;19;1532;-87
2022/10/12 02:39:34;;;;;;;;;;;;;;;20.67;50.83;95730.47;6111312;19;1846;-87
2022/10/12 02:41:41;;;;;;;;;;;;;;;20.69;50.97;95724.94;6121603;19;1492;-87
2022/10/12 02:43:46;;;;;;;;;;;;;;;20.68;50.94;95721.44;6123398;19;1417;-87
2022/10/12 02:45:50;;;;;;;;;;;;;;;20.67;50.80;95724.31;6120734;19;1470;-87
2022/10/12 02:47:55;;;;;;;;;;;;;;;20.68;51.15;95723.28;6121274;19;1498;-89
2022/10/12 02:50:01;;;;;;;;;;;;;;;20.74;50.37;95722.50;6102237;19;1444;-85
2022/10/12 02:52:05;;;;;;;;;;;;;;;20.62;50.43;95716.88;6118588;19;1516;-86
2022/10/12 02:54:11;;;;;;;;;;;;;;;20.70;50.66;95719.41;6117634;19;1370;-87
2022/10/12 02:56:17;;;;;;;;;;;;;;;20.77;50.00;95714.09;6121939;19;1430;-89
2022/10/12 02:58:20;;;;;;;;;;;;;;;20.81;50.48;95725.22;6123269;19;1842;-86
2022/10/12 03:00:24;;;;;;;;;;;;;;;20.84;50.42;95725.66;6111084;19;1523;-84
2022/10/12 03:02:27;;;;;;;;;;;;;;;20.86;50.11;95712.94;6109787;19;1523;-81
2022/10/12 03:04:31;;;;;;;;;;;;;;;20.87;49.75;95716.44;6118890;19;1402;-86
2022/10/12 03:06:34;;;;;;;;;;;;;;;20.13;48.27;95719.53;6119410;19;1518;-84
2022/10/12 03:08:38;;;;;;;;;;;;;;;19.66;48.40;95717.25;6119859;19;1475;-83
2022/10/12 03:10:44;;;;;;;;;;;;;;;19.48;48.52;95715.97;6119870;19;1440;-82
2022/10/12 03:12:47;;;;;;;;;;;;;;;19.43;48.14;95722.69;6099579;19;1543;-81
2022/10/12 03:14:51;;;;;;;;;;;;;;;19.27;48.31;95720.22;6119376;19;1424;-81
2022/10/12 03:16:54;;;;;;;;;;;;;;;19.15;48.43;95722.53;6117598;19;1429;-83
2022/10/12 03:18:58;;;;;;;;;;;;;;;19.15;48.50;95724.34;6119598;19;1846;-84
2022/10/12 03:21:01;;;;;;;;;;;;;;;19.20;48.44;95717.47;6120163;19;1422;-81
2022/10/12 03:23:05;;;;;;;;;;;;;;;19.17;48.39;95717.00;6117580;19;1538;-81
2022/10/12 03:25:09;;;;;;;;;;;;;;;19.19;47.93;95712.34;6099374;19;1429;-81
2022/10/12 03:27:14;;;;;;;;;;;;;;;19.18;47.86;95718.69;6118513;19;1520;-82
2022/10/12 03:29:18;;;;;;;;;;;;;;;19.18;48.02;95722.16;6115746;19;1450;-82
2022/10/12 03:31:21;;;;;;;;;;;;;;;19.16;47.83;95718.03;6114954;19;1385;-79
2022/10/12 03:33:27;;;;;;;;;;;;;;;19.15;48.18;95713.69;6119990;19;1245;-82
2022/10/12 03:35:30;;;;;;;;;;;;;;;19.28;47.73;95718.38;6102879;19;1065;-84
2022/10/12 03:37:34;;;;;;;;;;;;;;;19.49;47.68;95714.94;6121059;19;1552;-87
2022/10/12 03:39:37;;;;;;;;;;;;;;;19.59;48.16;95721.66;6124700;19;1865;-85
2022/10/12 03:41:40;;;;;;;;;;;;;;;19.65;48.19;95718.22;6123196;19;1404;-84
2022/10/12 03:43:46;;;;;;;;;;;;;;;19.70;48.07;95720.34;6124044;19;1383;-85
2022/10/12 03:45:51;;;;;;;;;;;;;;;19.73;48.20;95717.28;6125208;19;1465;-82
2022/10/12 03:47:54;;;;;;;;;;;;;;;19.77;47.98;95718.56;6107433;19;1421;-81
2022/10/12 03:49:58;;;;;;;;;;;;;;;19.80;48.00;95726.19;6127752;19;1515;-84
2022/10/12 03:52:01;;;;;;;;;;;;;;;19.84;47.89;95719.47;6124621;19;1437;-83
2022/10/12 03:54:04;;;;;;;;;;;;;;;19.82;47.61;95721.47;6125598;19;1515;-82
2022/10/12 03:56:08;;;;;;;;;;;;;;;19.83;47.74;95723.16;6123159;19;1508;-81
2022/10/12 03:58:12;;;;;;;;;;;;;;;19.82;47.62;95718.00;6115442;19;1557;-83
2022/10/12 04:00:18;;;;;;;;;;;;;;;19.83;47.69;95717.81;6111102;19;1887;-82
2022/10/12 04:02:22;;;;;;;;;;;;;;;19.81;47.79;95724.34;6124422;19;1354;-79
2022/10/12 04:04:25;;;;;;;;;;;;;;;19.81;47.89;95725.19;6120771;19;1520;-79
2022/10/12 04:06:28;;;;;;;;;;;;;;;19.82;47.67;95720.66;6123007;19;1430;-83
2022/10/12 04:08:32;;;;;;;;;;;;;;;19.82;47.65;95723.34;6124968;19;1429;-83
2022/10/12 04:10:35;;;;;;;;;;;;;;;19.83;47.45;95724.97;6102332;19;1508;-83
2022/10/12 04:12:38;;;;;;;;;;;;;;;19.82;47.86;95726.81;6121968;19;1509;-84
2022/10/12 04:14:42;;;;;;;;;;;;;;;19.83;47.74;95723.16;6126237;19;1509;-83
2022/10/12 04:16:48;;;;;;;;;;;;;;;19.83;47.53;95733.81;6125334;19;1437;-83
2022/10/12 04:18:51;;;;;;;;;;;;;;;19.81;47.79;95725.19;6124900;19;1849;-83
2022/10/12 04:20:55;;;;;;;;;;;;;;;19.82;47.41;95723.34;6115931;19;1453;-85
2022/10/12 04:22:58;;;;;;;;;;;;;;;19.81;47.41;95729.69;6111701;19;1426;-83
2022/10/12 04:25:01;;;;;;;;;;;;;;;19.80;47.56;95734.19;6120805;19;1050;-84
2022/10/12 04:27:05;;;;;;;;;;;;;;;19.86;47.38;95730.78;6120584;19;1383;-90
2022/10/12 04:29:08;;;;;;;;;;;;;;;19.87;47.60;95729.75;6122679;19;1446;-84
2022/10/12 04:31:12;;;;;;;;;;;;;;;19.86;47.60;95733.44;6122515;19;1411;-88
2022/10/12 04:33:18;;;;;;;;;;;;;;;19.86;47.59;95744.13;6105614;19;1407;-88
2022/10/12 04:35:21;;;;;;;;;;;;;;;19.88;47.59;95733.25;6120896;19;1415;-87
2022/10/12 04:37:24;;;;;;;;;;;;;;;19.88;47.37;95727.91;6123179;19;1017;-88
2022/10/12 04:39:28;;;;;;;;;;;;;;;19.88;47.28;95736.72;6122907;19;1854;-83
2022/10/12 04:41:31;;;;;;;;;;;;;;;19.89;47.56;95732.25;6120067;19;1061;-87
2022/10/12 04:43:35;;;;;;;;;;;;;;;19.91;47.43;95730.19;6112717;19;1315;-88
2022/10/12 04:45:38;;;;;;;;;;;;;;;19.93;47.24;95735.34;6107513;19;1411;-87
2022/10/12 04:47:41;;;;;;;;;;;;;;;19.93;47.18;95732.69;6118366;19;1058;-87
2022/10/12 04:49:47;;;;;;;;;;;;;;;19.93;47.58;95738.00;6120483;19;970;-87
2022/10/12 04:51:51;;;;;;;;;;;;;;;19.93;47.28;95740.69;6119881;19;1064;-83
2022/10/12 04:53:54;;;;;;;;;;;;;;;19.57;47.74;95744.19;6116839;19;1030;-82
2022/10/12 04:55:57;;;;;;;;;;;;;;;19.35;47.75;95751.25;6101378;19;1133;-81
2022/10/12 04:58:01;;;;;;;;;;;;;;;19.19;48.20;95746.97;6120044;19;1059;-82
2022/10/12 05:00:04;;;;;;;;;;;;;;;19.09;48.13;95746.41;6119666;19;1845;-81
2022/10/12 05:02:08;;;;;;;;;;;;;;;19.03;47.82;95747.16;6120608;19;1069;-82
2022/10/12 05:04:11;;;;;;;;;;;;;;;19.00;48.33;95753.66;6117574;19;1428;-82
2022/10/12 05:06:17;;;;;;;;;;;;;;;18.98;48.15;95751.22;6117656;19;1026;-85
2022/10/12 05:08:21;;;;;;;;;;;;;;;19.01;47.92;95755.34;6109877;19;986;-83
2022/10/12 05:10:24;;;;;;;;;;;;;;;18.98;47.70;95761.84;6120168;19;1144;-82
2022/10/12 05:12:28;;;;;;;;;;;;;;;18.93;47.73;95761.56;6119886;19;1076;-82
2022/10/12 05:14:31;;;;;;;;;;;;;;;18.91;47.86;95766.25;6119708;19;990;-83
2022/10/12 05:16:34;;;;;;;;;;;;;;;18.95;48.13;95764.88;6120551;19;1069;-82
2022/10/12 05:18:37;;;;;;;;;;;;;;;18.86;48.47;95773.94;6102204;19;1092;-82
2022/10/12 05:20:41;;;;;;;;;;;;;;;18.78;48.28;95768.75;6117548;19;1908;-82
2022/10/12 05:22:47;;;;;;;;;;;;;;;18.74;48.38;95773.56;6120379;19;1119;-81
2022/10/12 05:24:50;;;;;;;;;;;;;;;18.76;48.52;95773.41;6119635;19;1494;-82
2022/10/12 05:26:54;;;;;;;;;;;;;;;18.74;48.68;95775.41;6118066;19;1355;-82
2022/10/12 05:28:57;;;;;;;;;;;;;;;18.73;48.92;95779.91;6117492;19;1154;-83
2022/10/12 05:31:00;;;;;;;;;;;;;;;18.68;48.54;95778.81;6107745;19;1001;-85
2022/10/12 05:33:06;;;;;;;;;;;;;;;18.53;49.29;95782.22;6119221;19;1552;-88
2022/10/12 05:35:10;;;;;;;;;;;;;;;19.07;48.34;95788.41;6118418;19;1500;-83
2022/10/12 05:37:14;;;;;;;;;;;;;;;19.39;47.76;95789.88;6118922;19;1376;-84
2022/10/12 05:39:20;;;;;;;;;;;;;;;19.53;47.21;95786.38;6120797;19;1847;-84
2022/10/12 05:41:23;;;;;;;;;;;;;;;19.64;46.96;95787.75;6101111;19;1509;-84
2022/10/12 05:43:27;;;;;;;;;;;;;;;19.70;46.48;95787.00;6120371;19;959;-86
2022/10/12 05:45:30;;;;;;;;;;;;;;;19.77;46.43;95793.22;6119925;19;1482;-84
2022/10/12 05:47:33;;;;;;;;;;;;;;;19.85;46.99;95787.78;6118803;19;1593;-86
2022/10/12 05:49:37;;;;;;;;;;;;;;;19.94;48.04;95785.00;6119399;19;1462;-89
2022/10/12 05:51:40;;;;;;;;;;;;;;;20.00;49.08;95793.06;6118840;19;1392;-89
2022/10/12 05:53:44;;;;;;;;;;;;;;;20.03;49.91;95798.06;6107325;19;1560;-87
2022/10/12 05:55:55;;;;;;;;;;;;;;;20.07;50.08;95793.16;6118636;19;1534;-86
2022/10/12 05:57:59;;;;;;;;;;;;;;;20.11;49.96;95800.56;6119398;19;1452;-85
2022/10/12 06:00:02;;;;;;;;;;;;;;;20.14;49.76;95798.56;6120168;19;1817;-87
2022/10/12 06:02:05;;;;;;;;;;;;;;;20.18;50.30;95805.19;6120926;19;1024;-85
2022/10/12 06:04:09;;;;;;;;;;;;;;;20.18;50.35;95808.66;6099963;19;1261;-87
2022/10/12 06:06:13;;;;;;;;;;;;;;;20.24;50.45;95802.56;6118187;19;1407;-85
2022/10/12 06:08:16;;;;;;;;;;;;;;;20.29;50.00;95810.00;6118540;19;1504;-84
2022/10/12 06:10:20;;;;;;;;;;;;;;;20.33;50.32;95817.44;6117439;19;1392;-83
2022/10/12 06:12:26;;;;;;;;;;;;;;;20.36;49.96;95815.41;6117090;19;1482;-82
2022/10/12 06:14:30;;;;;;;;;;;;;;;20.37;50.20;95814.41;6111993;19;1033;-83
2022/10/12 06:16:33;;;;;;;;;;;;;;;20.38;51.01;95827.56;6108746;19;1455;-90
2022/10/12 06:18:36;;;;;;;;;;;;;;;20.38;52.00;95827.56;6121678;19;970;-89
2022/10/12 06:20:40;;;;;;;;;;;;;;;20.37;51.35;95825.91;6119263;19;1830;-89
2022/10/12 06:22:43;;;;;;;;;;;;;;;20.38;50.62;95826.75;6120249;19;1103;-89
2022/10/12 06:24:47;;;;;;;;;;;;;;;20.36;49.84;95824.22;6120593;19;898;-89
2022/10/12 06:26:50;;;;;;;;;;;;;;;20.38;49.63;95827.56;6100613;19;1390;-89
2022/10/12 06:28:56;;;;;;;;;;;;;;;20.38;49.53;95830.25;6119742;19;1293;-89
2022/10/12 06:31:00;;;;;;;;;;;;;;;20.38;49.25;95837.44;6122665;19;1428;-89
2022/10/12 06:33:03;;;;;;;;;;;;;;;20.37;49.59;95830.44;6124190;19;1044;-90
2022/10/12 06:35:09;;;;;;;;;;;;;;;20.37;49.26;95831.25;6120485;19;1081;-90
2022/10/12 06:37:13;;;;;;;;;;;;;;;20.38;48.98;95837.44;6112892;19;1414;-89
2022/10/12 06:39:16;;;;;;;;;;;;;;;20.37;49.10;95830.44;6113301;19;1125;-89
2022/10/12 06:41:20;;;;;;;;;;;;;;;20.39;49.13;95833.75;6119242;19;1861;-89
2022/10/12 06:43:23;;;;;;;;;;;;;;;20.39;48.92;95836.41;6120925;19;1042;-89
2022/10/12 06:45:29;;;;;;;;;;;;;;;20.39;48.45;95841.75;6121127;19;1403;-89
2022/10/12 06:47:33;;;;;;;;;;;;;;;20.39;48.41;95839.06;6117952;19;1591;-89
2022/10/12 06:49:36;;;;;;;;;;;;;;;20.40;48.24;95840.72;6102814;19;1413;-89
2022/10/12 06:51:40;;;;;;;;;;;;;;;20.39;48.61;95839.91;6119598;19;970;-87
2022/10/12 06:53:43;;;;;;;;;;;;;;;20.41;48.17;95847.72;6121181;19;1044;-89
2022/10/12 06:55:46;;;;;;;;;;;;;;;20.40;48.29;95846.06;6119350;19;1404;-89
2022/10/12 06:57:50;;;;;;;;;;;;;;;20.41;48.02;95842.38;6119367;19;1098;-89
2022/10/12 06:59:53;;;;;;;;;;;;;;;20.40;47.96;95840.72;6110929;19;1849;-90
2022/10/12 07:01:59;;;;;;;;;;;;;;;20.41;48.03;95848.56;6109845;19;1146;-88
2022/10/12 07:04:03;;;;;;;;;;;;;;;20.41;47.95;95845.06;6116538;19;1380;-89
2022/10/12 07:06:07;;;;;;;;;;;;;;;20.42;48.03;95846.69;6116993;19;1383;-89
2022/10/12 07:08:10;;;;;;;;;;;;;;;20.42;48.19;95844.03;6116735;19;1311;-89
2022/10/12 07:10:14;;;;;;;;;;;;;;;20.42;47.99;95844.03;6118161;19;1136;-89
2022/10/12 07:12:17;;;;;;;;;;;;;;;20.42;48.01;95850.19;6097211;19;1392;-89
2022/10/12 07:14:20;;;;;;;;;;;;;;;20.43;47.83;95848.34;6116220;19;1427;-89
2022/10/12 07:16:24;;;;;;;;;;;;;;;20.43;47.81;95848.34;6114498;19;1399;-89
2022/10/12 07:18:33;;;;;;;;;;;;;;;20.44;47.42;95847.34;6118692;19;1024;-90
2022/10/12 07:20:39;;;;;;;;;;;;;;;20.44;47.80;95852.69;6119453;19;1848;-91
2022/10/12 07:22:43;;;;;;;;;;;;;;;20.46;47.71;95855.97;6110758;19;1485;-93
2022/10/12 07:24:46;;;;;;;;;;;;;;;20.45;47.99;95849.81;6110317;19;1417;-93
2022/10/12 07:26:51;;;;;;;;;;;;;;;20.48;47.65;95853.94;6117293;19;1568;-90
2022/10/12 07:28:54;;;;;;;;;;;;;;;20.49;47.77;95850.28;6117442;19;1142;-90
2022/10/12 07:31:02;;;;;;;;;;;;;;;20.51;48.08;95853.56;6117835;19;1387;-90
2022/10/12 07:33:05;;;;;;;;;;;;;;;20.51;47.85;95856.22;6117804;19;1217;-90
2022/10/12 07:35:11;;;;;;;;;;;;;;;20.53;47.87;95862.22;6100484;19;1413;-92
2022/10/12 07:37:15;;;;;;;;;;;;;;;20.52;48.27;95855.22;6118077;19;1443;-91
2022/10/12 07:39:18;;;;;;;;;;;;;;;20.52;48.25;95853.38;6115860;19;1473;-87
2022/10/12 07:41:21;;;;;;;;;;;;;;;20.54;47.92;95858.50;6116668;19;1872;-86
2022/10/12 07:43:25;;;;;;;;;;;;;;;20.55;48.09;95857.53;6116055;19;1429;-87
2022/10/12 07:45:29;;;;;;;;;;;;;;;20.56;48.15;95861.84;6107007;19;1374;-86
2022/10/12 07:47:32;;;;;;;;;;;;;;;20.54;47.90;95848.69;6107983;19;1028;-90
2022/10/12 07:49:35;;;;;;;;;;;;;;;20.56;48.01;95856.50;6114636;19;1498;-86
2022/10/12 07:51:49;;;;;;;;;;;;;;;20.55;48.14;95855.66;6117661;19;1619;-88
2022/10/12 07:53:59;;;;;;;;;;;;;;;20.56;47.80;95861.84;6120785;19;1403;-95
2022/10/12 07:56:02;;;;;;;;;;;;;;;20.56;48.36;95851.97;6118724;19;1414;-91
2022/10/12 07:58:06;;;;;;;;;;;;;;;20.56;47.97;95848.47;6099761;19;1469;-91
2022/10/12 08:00:10;;;;;;;;;;;;;;;20.56;48.40;95851.16;6115952;19;1846;-93
2022/10/12 08:02:13;;;;;;;;;;;;;;;20.56;47.95;95851.16;6117989;19;1453;-93
2022/10/12 08:04:17;;;;;;;;;;;;;;;20.56;48.01;95861.84;6116513;19;1478;-93
2022/10/12 08:06:21;;;;;;;;;;;;;;;20.56;48.03;95851.16;6118019;19;1511;-93
2022/10/12 08:08:27;;;;;;;;;;;;;;;20.56;48.03;95859.97;6106385;19;1411;-93
2022/10/12 08:10:31;;;;;;;;;;;;;;;20.57;48.37;95863.47;6113668;19;1170;-90
2022/10/12 08:12:34;;;;;;;;;;;;;;;20.54;48.03;95853.19;6116701;19;1407;-89
2022/10/12 08:14:40;;;;;;;;;;;;;;;20.56;48.00;95862.66;6118179;19;1283;-90
2022/10/12 08:16:43;;;;;;;;;;;;;;;20.57;48.13;95866.16;6121655;19;1084;-87
2022/10/12 08:18:47;;;;;;;;;;;;;;;20.56;47.88;95856.50;6118185;19;1524;-91
2022/10/12 08:20:50;;;;;;;;;;;;;;;20.57;48.14;95863.47;6098184;19;1817;-91
2022/10/12 08:22:54;;;;;;;;;;;;;;;20.58;48.24;95859.81;6119223;19;1139;-86
2022/10/12 08:25:00;;;;;;;;;;;;;;;20.57;48.20;95855.47;6122137;19;1367;-93
2022/10/12 08:27:03;;;;;;;;;;;;;;;20.55;48.22;95865.53;6127508;19;1608;-91
2022/10/12 08:29:07;;;;;;;;;;;;;;;20.55;48.26;95865.53;6125954;19;1389;-92
2022/10/12 08:31:11;;;;;;;;;;;;;;;20.53;47.91;95864.88;6106562;19;1391;-93
2022/10/12 08:33:16;;;;;;;;;;;;;;;20.52;48.00;95866.72;6121048;19;1436;-93
2022/10/12 08:35:28;;;;;;;;;;;;;;;20.51;48.07;95865.06;6124782;19;1504;-93
2022/10/12 08:37:32;;;;;;;;;;;;;;;20.51;47.83;95858.91;6123211;19;1143;-93
2022/10/12 08:39:35;;;;;;;;;;;;;;;20.51;47.89;95870.41;6123362;19;1561;-93
2022/10/12 08:41:48;;;;;;;;;;;;;;;20.50;48.05;95862.59;6122398;19;1853;-92
2022/10/12 08:43:59;;;;;;;;;;;;;;;20.50;47.85;95862.59;6108383;19;1458;-92
2022/10/12 08:46:04;;;;;;;;;;;;;;;20.50;48.13;95857.25;6122813;19;1417;-93
2022/10/12 08:48:11;;;;;;;;;;;;;;;20.50;47.99;95863.41;6123434;19;1464;-92
2022/10/12 08:50:19;;;;;;;;;;;;;;;20.49;47.75;95860.97;6123295;19;1635;-91
2022/10/12 08:52:29;;;;;;;;;;;;;;;20.53;47.88;95854.22;6124684;19;1696;-91
2022/10/12 08:54:36;;;;;;;;;;;;;;;20.53;47.82;95857.69;6102886;19;1397;-91
2022/10/12 08:56:43;;;;;;;;;;;;;;;20.55;48.00;95857.53;6124065;19;1412;-89
2022/10/12 08:58:46;;;;;;;;;;;;;;;20.55;47.91;95857.53;6121920;19;1503;-90
2022/10/12 09:00:51;;;;;;;;;;;;;;;20.56;48.10;95868.00;6119455;19;1846;-86
2022/10/12 09:03:01;;;;;;;;;;;;;;;20.58;47.63;95865.16;6122158;19;1371;-86
2022/10/12 09:05:08;;;;;;;;;;;;;;;20.57;48.08;95858.13;6114241;19;1036;-86
2022/10/12 09:07:14;;;;;;;;;;;;;;;20.57;47.75;95860.81;6116279;19;1076;-86
2022/10/12 09:09:36;;;;;;;;;;;;;;;20.58;47.77;95859.81;6123671;19;1544;-86
2022/10/12 09:11:48;;;;;;;;;;;;;;;20.58;48.05;95857.13;6123627;19;1199;-85
2022/10/12 09:13:57;;;;;;;;;;;;;;;20.58;47.76;95862.47;6122191;19;1383;-85
2022/10/12 09:16:04;;;;;;;;;;;;;;;20.59;47.86;95856.09;6112623;19;1635;-87
2022/10/12 09:18:13;;;;;;;;;;;;;;;20.61;48.13;95863.94;6114834;19;1025;-86
2022/10/12 09:20:19;;;;;;;;;;;;;;;20.60;47.73;95864.94;6121181;19;1620;-85
2022/10/12 09:22:22;;;;;;;;;;;;;;;20.60;48.07;95865.78;6121285;19;1822;-86
2022/10/12 09:24:28;;;;;;;;;;;;;;;20.61;47.70;95853.25;6123425;19;1151;-86
2022/10/12 09:26:38;;;;;;;;;;;;;;;20.62;47.99;95860.25;6123898;19;1490;-91
2022/10/12 09:28:45;;;;;;;;;;;;;;;20.63;48.11;95857.41;6104396;19;1382;-88
2022/10/12 09:31:03;;;;;;;;;;;;;;;20.63;48.06;95852.06;6118875;19;1565;-88
2022/10/12 09:33:20;;;;;;;;;;;;;;;20.65;48.02;95860.69;6118654;19;1413;-88
2022/10/12 09:35:24;;;;;;;;;;;;;;;20.65;47.80;95865.19;6119872;19;1505;-89
2022/10/12 09:37:29;;;;;;;;;;;;;;;20.66;48.23;95861.50;6121350;19;1466;-89
2022/10/12 09:39:34;;;;;;;;;;;;;;;20.65;48.03;95863.34;6102531;19;1491;-90
2022/10/12 09:41:41;;;;;;;;;;;;;;;20.65;48.07;95866.03;6121789;19;1838;-90
2022/10/12 09:43:47;;;;;;;;;;;;;;;20.66;48.14;95857.00;6125337;19;839;-90
2022/10/12 09:45:50;;;;;;;;;;;;;;;20.66;48.11;95862.34;6120603;19;1408;-80
2022/10/12 09:48:09;;;;;;;;;;;;;;;20.63;48.22;95856.53;6116544;19;1533;-81
2022/10/12 09:50:13;;;;;;;;;;;;;;;20.62;48.23;95855.72;6110914;19;1127;-88
2022/10/12 09:52:18;;;;;;;;;;;;;;;20.66;47.82;95857.00;6113557;19;1059;-90
2022/10/12 09:54:25;;;;;;;;;;;;;;;20.66;48.18;95859.69;6122429;19;788;-89
2022/10/12 09:56:31;;;;;;;;;;;;;;;20.67;47.85;95855.97;6119235;19;1466;-88
2022/10/12 09:58:39;;;;;;;;;;;;;;;20.68;48.08;95852.28;6121128;19;1454;-89
2022/10/12 10:00:46;;;;;;;;;;;;;;;20.71;47.81;95853.75;6123652;19;1384;-92
2022/10/12 10:02:50;;;;;;;;;;;;;;;20.70;47.93;95850.25;6104517;19;1909;-95
2022/10/12 10:04:54;;;;;;;;;;;;;;;20.71;48.21;95851.06;6122415;19;1479;-94
2022/10/12 10:07:13;;;;;;;;;;;;;;;20.71;48.16;95845.72;6120076;19;1525;-92
2022/10/12 10:09:30;;;;;;;;;;;;;;;20.70;48.23;95844.09;6119232;19;1280;-92
2022/10/12 10:11:34;;;;;;;;;;;;;;;20.70;47.97;95842.25;6121807;19;1399;-89
2022/10/12 10:13:39;;;;;;;;;;;;;;;20.72;48.27;95848.22;6104066;19;1399;-92
2022/10/12 10:15:47;;;;;;;;;;;;;;;20.72;48.21;95842.88;6122184;19;1544;-90
2022/10/12 10:17:52;;;;;;;;;;;;;;;20.71;48.04;95838.53;6121743;19;1406;-89
2022/10/12 10:19:57;;;;;;;;;;;;;;;20.72;48.42;95840.22;6118045;19;1483;-89
2022/10/12 10:22:06;;;;;;;;;;;;;;;20.71;48.14;95838.53;6119140;19;1854;-89
2022/10/12 10:24:22;;;;;;;;;;;;;;;20.71;48.20;95838.53;6111774;19;1085;-90
2022/10/12 10:26:26;;;;;;;;;;;;;;;20.71;48.42;95827.03;6110814;19;1372;-90
2022/10/12 10:28:30;;;;;;;;;;;;;;;20.72;48.49;95828.72;6121504;19;1141;-90
2022/10/12 10:30:42;;;;;;;;;;;;;;;20.72;48.54;95829.53;6125548;19;1391;-91
2022/10/12 10:32:49;;;;;;;;;;;;;;;20.72;48.14;95824.19;6135503;19;1118;-91
2022/10/12 10:35:03;;;;;;;;;;;;;;;20.73;48.62;95819.66;6121545;19;1413;-91
2022/10/12 10:37:08;;;;;;;;;;;;;;;20.73;48.52;95823.16;6104127;19;1307;-91
2022/10/12 10:39:17;;;;;;;;;;;;;;;20.72;48.25;95816.19;6119394;19;1387;-91
2022/10/12 10:41:21;;;;;;;;;;;;;;;20.73;48.51;95812.47;6121734;19;1861;-91
2022/10/12 10:43:27;;;;;;;;;;;;;;;20.74;48.29;95810.63;6119035;19;1127;-91
2022/10/12 10:45:32;;;;;;;;;;;;;;;20.74;48.56;95814.16;6118731;19;1085;-91
2022/10/12 10:47:36;;;;;;;;;;;;;;;20.75;48.31;95807.78;6102888;19;1368;-90
2022/10/12 10:49:44;;;;;;;;;;;;;;;20.76;48.66;95814.75;6119661;19;1388;-90
2022/10/12 10:51:49;;;;;;;;;;;;;;;20.75;48.37;95807.78;6119595;19;1478;-90
2022/10/12 10:53:53;;;;;;;;;;;;;;;20.76;48.24;95805.94;6118122;19;1430;-91
2022/10/12 10:55:59;;;;;;;;;;;;;;;20.76;48.71;95797.91;6119707;19;1028;-90
2022/10/12 10:58:04;;;;;;;;;;;;;;;20.77;48.62;95799.56;6118934;19;1482;-92
2022/10/12 11:00:09;;;;;;;;;;;;;;;20.77;48.46;95796.88;6117469;19;1449;-91
2022/10/12 11:02:25;;;;;;;;;;;;;;;20.77;48.41;95800.41;6124805;19;1845;-92